sensor_id;sensor_type;location;lat;lon;timestamp;P1;durP1;ratioP1;P2;durP2;ratioP2
22320;SDS011;11328;53.928;18.522;2023-12-28T00:02:24;30.08;;;11.60;;
22320;SDS011;11328;53.928;18.522;2023-12-28T00:04:51;35.45;;;11.93;;
22320;SDS011;11328;53.928;18.522;2023-12-28T00:07:18;30.30;;;11.30;;
22320;SDS011;11328;53.928;18.522;2023-12-28T00:09:46;32.72;;;12.45;;
22320;SDS011;11328;53.928;18.522;2023-12-28T00:12:14;26.20;;;11.43;;
22320;SDS011;11328;53.928;18.522;2023-12-28T00:14:41;29.42;;;12.15;;
22320;SDS011;11328;53.928;18.522;2023-12-28T00:17:08;29.25;;;12.75;;
22320;SDS011;11328;53.928;18.522;2023-12-28T00:19:36;36.25;;;12.82;;
22320;SDS011;11328;53.928;18.522;2023-12-28T00:22:04;35.13;;;14.93;;
22320;SDS011;11328;53.928;18.522;2023-12-28T00:24:31;35.63;;;15.05;;
22320;SDS011;11328;53.928;18.522;2023-12-28T00:26:59;31.15;;;15.25;;
22320;SDS011;11328;53.928;18.522;2023-12-28T00:29:26;35.08;;;15.85;;
22320;SDS011;11328;53.928;18.522;2023-12-28T00:31:55;40.55;;;17.67;;
22320;SDS011;11328;53.928;18.522;2023-12-28T00:34:22;37.85;;;17.58;;
22320;SDS011;11328;53.928;18.522;2023-12-28T00:36:49;39.53;;;17.73;;
22320;SDS011;11328;53.928;18.522;2023-12-28T00:39:17;38.78;;;19.00;;
22320;SDS011;11328;53.928;18.522;2023-12-28T00:41:44;46.88;;;19.15;;
22320;SDS011;11328;53.928;18.522;2023-12-28T00:44:11;50.72;;;20.15;;
22320;SDS011;11328;53.928;18.522;2023-12-28T00:46:38;41.88;;;19.33;;
22320;SDS011;11328;53.928;18.522;2023-12-28T00:49:06;45.67;;;20.40;;
22320;SDS011;11328;53.928;18.522;2023-12-28T00:51:34;47.25;;;20.63;;
22320;SDS011;11328;53.928;18.522;2023-12-28T00:54:03;46.47;;;19.90;;
22320;SDS011;11328;53.928;18.522;2023-12-28T00:56:30;47.60;;;20.75;;
22320;SDS011;11328;53.928;18.522;2023-12-28T00:58:57;41.55;;;19.52;;
22320;SDS011;11328;53.928;18.522;2023-12-28T01:01:24;48.15;;;20.38;;
22320;SDS011;11328;53.928;18.522;2023-12-28T01:03:52;46.47;;;21.15;;
22320;SDS011;11328;53.928;18.522;2023-12-28T01:06:19;45.10;;;20.80;;
22320;SDS011;11328;53.928;18.522;2023-12-28T01:08:46;43.58;;;22.00;;
22320;SDS011;11328;53.928;18.522;2023-12-28T01:11:14;50.10;;;21.75;;
22320;SDS011;11328;53.928;18.522;2023-12-28T01:13:41;52.15;;;22.55;;
22320;SDS011;11328;53.928;18.522;2023-12-28T01:16:08;48.60;;;22.63;;
22320;SDS011;11328;53.928;18.522;2023-12-28T01:18:35;47.67;;;21.77;;
22320;SDS011;11328;53.928;18.522;2023-12-28T01:21:03;50.72;;;22.63;;
22320;SDS011;11328;53.928;18.522;2023-12-28T01:23:32;54.80;;;24.80;;
22320;SDS011;11328;53.928;18.522;2023-12-28T01:26:00;51.75;;;23.75;;
22320;SDS011;11328;53.928;18.522;2023-12-28T01:28:27;57.83;;;24.98;;
22320;SDS011;11328;53.928;18.522;2023-12-28T01:30:54;55.53;;;25.35;;
22320;SDS011;11328;53.928;18.522;2023-12-28T01:33:21;60.83;;;26.02;;
22320;SDS011;11328;53.928;18.522;2023-12-28T01:35:49;54.33;;;25.70;;
22320;SDS011;11328;53.928;18.522;2023-12-28T01:38:16;58.30;;;27.25;;
22320;SDS011;11328;53.928;18.522;2023-12-28T01:40:46;54.25;;;26.95;;
22320;SDS011;11328;53.928;18.522;2023-12-28T01:43:13;57.25;;;27.17;;
22320;SDS011;11328;53.928;18.522;2023-12-28T01:45:41;60.40;;;27.05;;
22320;SDS011;11328;53.928;18.522;2023-12-28T01:48:08;59.75;;;28.35;;
22320;SDS011;11328;53.928;18.522;2023-12-28T01:50:37;61.20;;;27.38;;
22320;SDS011;11328;53.928;18.522;2023-12-28T01:53:04;69.90;;;29.60;;
22320;SDS011;11328;53.928;18.522;2023-12-28T01:55:34;62.47;;;29.13;;
22320;SDS011;11328;53.928;18.522;2023-12-28T01:58:01;67.93;;;29.75;;
22320;SDS011;11328;53.928;18.522;2023-12-28T02:00:29;70.07;;;29.10;;
22320;SDS011;11328;53.928;18.522;2023-12-28T02:02:58;67.68;;;31.10;;
22320;SDS011;11328;53.928;18.522;2023-12-28T02:05:26;69.53;;;29.88;;
22320;SDS011;11328;53.928;18.522;2023-12-28T02:07:54;72.22;;;29.10;;
22320;SDS011;11328;53.928;18.522;2023-12-28T02:10:21;66.97;;;28.92;;
22320;SDS011;11328;53.928;18.522;2023-12-28T02:12:48;65.22;;;29.30;;
22320;SDS011;11328;53.928;18.522;2023-12-28T02:15:16;69.00;;;30.20;;
22320;SDS011;11328;53.928;18.522;2023-12-28T02:17:47;74.40;;;30.90;;
22320;SDS011;11328;53.928;18.522;2023-12-28T02:20:39;73.20;;;30.17;;
22320;SDS011;11328;53.928;18.522;2023-12-28T02:23:07;69.07;;;30.23;;
22320;SDS011;11328;53.928;18.522;2023-12-28T02:25:36;63.22;;;30.45;;
22320;SDS011;11328;53.928;18.522;2023-12-28T02:28:03;67.85;;;30.67;;
22320;SDS011;11328;53.928;18.522;2023-12-28T02:30:31;73.32;;;29.27;;
22320;SDS011;11328;53.928;18.522;2023-12-28T02:36:04;64.38;;;28.55;;
22320;SDS011;11328;53.928;18.522;2023-12-28T02:38:38;63.35;;;28.70;;
22320;SDS011;11328;53.928;18.522;2023-12-28T02:41:07;67.22;;;28.70;;
22320;SDS011;11328;53.928;18.522;2023-12-28T02:43:36;63.88;;;27.60;;
22320;SDS011;11328;53.928;18.522;2023-12-28T02:46:03;62.08;;;26.27;;
22320;SDS011;11328;53.928;18.522;2023-12-28T02:48:30;57.33;;;25.85;;
22320;SDS011;11328;53.928;18.522;2023-12-28T02:50:57;59.13;;;26.05;;
22320;SDS011;11328;53.928;18.522;2023-12-28T02:53:25;55.15;;;25.40;;
22320;SDS011;11328;53.928;18.522;2023-12-28T02:55:52;60.13;;;26.40;;
22320;SDS011;11328;53.928;18.522;2023-12-28T02:58:19;51.35;;;23.90;;
22320;SDS011;11328;53.928;18.522;2023-12-28T03:00:46;51.92;;;24.63;;
22320;SDS011;11328;53.928;18.522;2023-12-28T03:03:15;54.75;;;24.92;;
22320;SDS011;11328;53.928;18.522;2023-12-28T03:05:42;54.40;;;25.00;;
22320;SDS011;11328;53.928;18.522;2023-12-28T03:08:09;62.42;;;25.02;;
22320;SDS011;11328;53.928;18.522;2023-12-28T03:10:36;55.35;;;25.25;;
22320;SDS011;11328;53.928;18.522;2023-12-28T03:13:04;60.35;;;25.52;;
22320;SDS011;11328;53.928;18.522;2023-12-28T03:15:31;57.80;;;24.15;;
22320;SDS011;11328;53.928;18.522;2023-12-28T03:17:59;58.42;;;23.77;;
22320;SDS011;11328;53.928;18.522;2023-12-28T03:20:27;58.08;;;24.00;;
22320;SDS011;11328;53.928;18.522;2023-12-28T03:22:54;51.15;;;22.52;;
22320;SDS011;11328;53.928;18.522;2023-12-28T03:25:21;51.88;;;22.42;;
22320;SDS011;11328;53.928;18.522;2023-12-28T03:27:48;59.50;;;23.95;;
22320;SDS011;11328;53.928;18.522;2023-12-28T03:30:15;59.70;;;23.27;;
22320;SDS011;11328;53.928;18.522;2023-12-28T03:32:43;48.05;;;22.63;;
22320;SDS011;11328;53.928;18.522;2023-12-28T03:35:10;49.28;;;22.38;;
22320;SDS011;11328;53.928;18.522;2023-12-28T03:37:37;50.13;;;21.65;;
22320;SDS011;11328;53.928;18.522;2023-12-28T03:40:04;52.78;;;21.40;;
22320;SDS011;11328;53.928;18.522;2023-12-28T03:42:32;60.05;;;22.38;;
22320;SDS011;11328;53.928;18.522;2023-12-28T03:44:59;48.92;;;22.10;;
22320;SDS011;11328;53.928;18.522;2023-12-28T03:47:26;50.80;;;20.90;;
22320;SDS011;11328;53.928;18.522;2023-12-28T03:49:53;53.10;;;20.90;;
22320;SDS011;11328;53.928;18.522;2023-12-28T03:52:26;47.95;;;21.10;;
22320;SDS011;11328;53.928;18.522;2023-12-28T03:54:56;47.85;;;21.33;;
22320;SDS011;11328;53.928;18.522;2023-12-28T03:57:24;47.42;;;20.23;;
22320;SDS011;11328;53.928;18.522;2023-12-28T03:59:52;45.22;;;20.33;;
22320;SDS011;11328;53.928;18.522;2023-12-28T04:02:20;42.03;;;19.58;;
22320;SDS011;11328;53.928;18.522;2023-12-28T04:04:47;41.38;;;18.73;;
22320;SDS011;11328;53.928;18.522;2023-12-28T04:07:15;36.35;;;17.42;;
22320;SDS011;11328;53.928;18.522;2023-12-28T04:09:42;45.45;;;18.70;;
22320;SDS011;11328;53.928;18.522;2023-12-28T04:12:09;46.92;;;18.33;;
22320;SDS011;11328;53.928;18.522;2023-12-28T04:14:36;44.50;;;19.15;;
22320;SDS011;11328;53.928;18.522;2023-12-28T04:17:03;41.08;;;17.60;;
22320;SDS011;11328;53.928;18.522;2023-12-28T04:19:30;41.38;;;17.77;;
22320;SDS011;11328;53.928;18.522;2023-12-28T04:21:58;31.13;;;16.52;;
22320;SDS011;11328;53.928;18.522;2023-12-28T04:24:25;39.40;;;16.83;;
22320;SDS011;11328;53.928;18.522;2023-12-28T04:26:52;45.50;;;17.80;;
22320;SDS011;11328;53.928;18.522;2023-12-28T04:29:19;38.63;;;17.10;;
22320;SDS011;11328;53.928;18.522;2023-12-28T04:31:47;41.78;;;16.42;;
22320;SDS011;11328;53.928;18.522;2023-12-28T04:34:14;39.20;;;16.85;;
22320;SDS011;11328;53.928;18.522;2023-12-28T04:36:42;37.75;;;17.40;;
22320;SDS011;11328;53.928;18.522;2023-12-28T04:39:11;38.35;;;17.85;;
22320;SDS011;11328;53.928;18.522;2023-12-28T04:41:40;41.33;;;17.15;;
22320;SDS011;11328;53.928;18.522;2023-12-28T04:44:07;39.47;;;17.27;;
22320;SDS011;11328;53.928;18.522;2023-12-28T04:46:37;41.17;;;16.60;;
22320;SDS011;11328;53.928;18.522;2023-12-28T04:49:07;39.95;;;16.92;;
22320;SDS011;11328;53.928;18.522;2023-12-28T04:51:41;41.72;;;18.27;;
22320;SDS011;11328;53.928;18.522;2023-12-28T04:54:10;33.63;;;16.42;;
22320;SDS011;11328;53.928;18.522;2023-12-28T04:56:38;37.00;;;15.60;;
22320;SDS011;11328;53.928;18.522;2023-12-28T04:59:05;36.78;;;15.70;;
22320;SDS011;11328;53.928;18.522;2023-12-28T05:01:32;34.50;;;14.60;;
22320;SDS011;11328;53.928;18.522;2023-12-28T05:03:59;33.58;;;14.85;;
22320;SDS011;11328;53.928;18.522;2023-12-28T05:06:27;33.53;;;14.70;;
22320;SDS011;11328;53.928;18.522;2023-12-28T05:08:56;33.58;;;15.48;;
22320;SDS011;11328;53.928;18.522;2023-12-28T05:11:23;38.85;;;15.75;;
22320;SDS011;11328;53.928;18.522;2023-12-28T05:13:51;40.30;;;16.20;;
22320;SDS011;11328;53.928;18.522;2023-12-28T05:16:18;35.78;;;15.60;;
22320;SDS011;11328;53.928;18.522;2023-12-28T05:18:45;34.67;;;14.30;;
22320;SDS011;11328;53.928;18.522;2023-12-28T05:21:13;34.17;;;14.75;;
22320;SDS011;11328;53.928;18.522;2023-12-28T05:23:41;30.42;;;14.02;;
22320;SDS011;11328;53.928;18.522;2023-12-28T05:26:08;37.80;;;15.73;;
22320;SDS011;11328;53.928;18.522;2023-12-28T05:28:36;28.92;;;13.98;;
22320;SDS011;11328;53.928;18.522;2023-12-28T05:31:03;34.83;;;15.43;;
22320;SDS011;11328;53.928;18.522;2023-12-28T05:33:32;49.78;;;21.92;;
22320;SDS011;11328;53.928;18.522;2023-12-28T05:35:59;39.53;;;17.20;;
22320;SDS011;11328;53.928;18.522;2023-12-28T05:38:26;44.45;;;19.38;;
22320;SDS011;11328;53.928;18.522;2023-12-28T05:40:53;45.90;;;20.92;;
22320;SDS011;11328;53.928;18.522;2023-12-28T05:43:20;69.82;;;27.75;;
22320;SDS011;11328;53.928;18.522;2023-12-28T05:45:47;45.78;;;19.50;;
22320;SDS011;11328;53.928;18.522;2023-12-28T05:48:15;39.35;;;16.27;;
22320;SDS011;11328;53.928;18.522;2023-12-28T05:50:42;36.63;;;16.13;;
22320;SDS011;11328;53.928;18.522;2023-12-28T05:53:09;48.70;;;20.75;;
22320;SDS011;11328;53.928;18.522;2023-12-28T05:55:43;47.10;;;20.67;;
22320;SDS011;11328;53.928;18.522;2023-12-28T05:58:10;56.00;;;23.55;;
22320;SDS011;11328;53.928;18.522;2023-12-28T06:00:38;41.90;;;20.42;;
22320;SDS011;11328;53.928;18.522;2023-12-28T06:03:05;51.42;;;23.40;;
22320;SDS011;11328;53.928;18.522;2023-12-28T06:05:33;42.70;;;19.58;;
22320;SDS011;11328;53.928;18.522;2023-12-28T06:08:00;41.35;;;21.42;;
22320;SDS011;11328;53.928;18.522;2023-12-28T06:10:27;42.30;;;19.42;;
22320;SDS011;11328;53.928;18.522;2023-12-28T06:12:55;45.20;;;20.77;;
22320;SDS011;11328;53.928;18.522;2023-12-28T06:15:22;58.42;;;23.92;;
22320;SDS011;11328;53.928;18.522;2023-12-28T06:17:50;50.50;;;25.25;;
22320;SDS011;11328;53.928;18.522;2023-12-28T06:20:18;47.92;;;23.45;;
22320;SDS011;11328;53.928;18.522;2023-12-28T06:22:45;47.03;;;21.98;;
22320;SDS011;11328;53.928;18.522;2023-12-28T06:25:15;46.63;;;21.88;;
22320;SDS011;11328;53.928;18.522;2023-12-28T06:27:42;38.13;;;17.75;;
22320;SDS011;11328;53.928;18.522;2023-12-28T06:30:09;39.50;;;19.38;;
22320;SDS011;11328;53.928;18.522;2023-12-28T06:32:37;35.08;;;16.73;;
22320;SDS011;11328;53.928;18.522;2023-12-28T06:35:05;32.90;;;16.52;;
22320;SDS011;11328;53.928;18.522;2023-12-28T06:37:33;36.15;;;18.08;;
22320;SDS011;11328;53.928;18.522;2023-12-28T06:40:00;31.25;;;15.57;;
22320;SDS011;11328;53.928;18.522;2023-12-28T06:42:27;35.65;;;17.00;;
22320;SDS011;11328;53.928;18.522;2023-12-28T06:44:55;30.13;;;14.93;;
22320;SDS011;11328;53.928;18.522;2023-12-28T06:47:22;32.92;;;15.80;;
22320;SDS011;11328;53.928;18.522;2023-12-28T06:49:49;29.38;;;14.45;;
22320;SDS011;11328;53.928;18.522;2023-12-28T06:52:17;36.25;;;15.45;;
22320;SDS011;11328;53.928;18.522;2023-12-28T06:54:44;34.25;;;17.20;;
22320;SDS011;11328;53.928;18.522;2023-12-28T06:57:12;29.52;;;15.23;;
22320;SDS011;11328;53.928;18.522;2023-12-28T06:59:39;30.30;;;15.52;;
22320;SDS011;11328;53.928;18.522;2023-12-28T07:02:06;34.53;;;16.10;;
22320;SDS011;11328;53.928;18.522;2023-12-28T07:04:33;34.28;;;15.45;;
22320;SDS011;11328;53.928;18.522;2023-12-28T07:07:00;35.22;;;15.90;;
22320;SDS011;11328;53.928;18.522;2023-12-28T07:09:27;29.85;;;14.88;;
22320;SDS011;11328;53.928;18.522;2023-12-28T07:11:55;33.38;;;15.07;;
22320;SDS011;11328;53.928;18.522;2023-12-28T07:14:22;35.47;;;14.82;;
22320;SDS011;11328;53.928;18.522;2023-12-28T07:16:49;29.48;;;14.73;;
22320;SDS011;11328;53.928;18.522;2023-12-28T07:19:16;33.58;;;15.57;;
22320;SDS011;11328;53.928;18.522;2023-12-28T07:21:43;29.40;;;14.70;;
22320;SDS011;11328;53.928;18.522;2023-12-28T07:24:11;28.05;;;14.65;;
22320;SDS011;11328;53.928;18.522;2023-12-28T07:26:38;28.50;;;14.13;;
22320;SDS011;11328;53.928;18.522;2023-12-28T07:29:05;31.73;;;14.23;;
22320;SDS011;11328;53.928;18.522;2023-12-28T07:31:32;33.42;;;14.52;;
22320;SDS011;11328;53.928;18.522;2023-12-28T07:34:00;27.20;;;13.15;;
22320;SDS011;11328;53.928;18.522;2023-12-28T07:36:27;28.52;;;13.98;;
22320;SDS011;11328;53.928;18.522;2023-12-28T07:38:54;28.88;;;13.88;;
22320;SDS011;11328;53.928;18.522;2023-12-28T07:41:22;28.63;;;13.43;;
22320;SDS011;11328;53.928;18.522;2023-12-28T07:43:49;32.20;;;14.30;;
22320;SDS011;11328;53.928;18.522;2023-12-28T07:46:16;26.35;;;13.35;;
22320;SDS011;11328;53.928;18.522;2023-12-28T07:48:43;28.27;;;13.30;;
22320;SDS011;11328;53.928;18.522;2023-12-28T07:51:12;26.10;;;12.95;;
22320;SDS011;11328;53.928;18.522;2023-12-28T07:53:40;23.70;;;12.68;;
22320;SDS011;11328;53.928;18.522;2023-12-28T07:56:07;24.70;;;12.85;;
22320;SDS011;11328;53.928;18.522;2023-12-28T07:58:34;27.00;;;12.55;;
22320;SDS011;11328;53.928;18.522;2023-12-28T08:01:03;28.02;;;12.80;;
22320;SDS011;11328;53.928;18.522;2023-12-28T08:03:35;25.43;;;12.67;;
22320;SDS011;11328;53.928;18.522;2023-12-28T08:06:03;26.52;;;12.85;;
22320;SDS011;11328;53.928;18.522;2023-12-28T08:08:31;33.22;;;13.95;;
22320;SDS011;11328;53.928;18.522;2023-12-28T08:10:58;32.95;;;13.13;;
22320;SDS011;11328;53.928;18.522;2023-12-28T08:13:26;24.52;;;12.93;;
22320;SDS011;11328;53.928;18.522;2023-12-28T08:15:53;25.10;;;12.05;;
22320;SDS011;11328;53.928;18.522;2023-12-28T08:18:20;24.83;;;12.25;;
22320;SDS011;11328;53.928;18.522;2023-12-28T08:20:48;25.25;;;13.63;;
22320;SDS011;11328;53.928;18.522;2023-12-28T08:23:16;26.40;;;14.20;;
22320;SDS011;11328;53.928;18.522;2023-12-28T08:25:44;25.23;;;12.40;;
22320;SDS011;11328;53.928;18.522;2023-12-28T08:28:11;24.98;;;12.27;;
22320;SDS011;11328;53.928;18.522;2023-12-28T08:30:39;22.58;;;12.27;;
22320;SDS011;11328;53.928;18.522;2023-12-28T08:33:07;21.58;;;12.05;;
22320;SDS011;11328;53.928;18.522;2023-12-28T08:35:34;27.15;;;12.88;;
22320;SDS011;11328;53.928;18.522;2023-12-28T08:38:02;22.85;;;11.88;;
22320;SDS011;11328;53.928;18.522;2023-12-28T08:40:30;23.38;;;12.57;;
22320;SDS011;11328;53.928;18.522;2023-12-28T08:42:57;25.25;;;12.30;;
22320;SDS011;11328;53.928;18.522;2023-12-28T08:45:24;23.40;;;11.48;;
22320;SDS011;11328;53.928;18.522;2023-12-28T08:47:52;24.90;;;12.23;;
22320;SDS011;11328;53.928;18.522;2023-12-28T08:50:19;24.17;;;12.13;;
22320;SDS011;11328;53.928;18.522;2023-12-28T08:52:46;24.75;;;12.98;;
22320;SDS011;11328;53.928;18.522;2023-12-28T08:55:14;24.27;;;11.95;;
22320;SDS011;11328;53.928;18.522;2023-12-28T08:57:41;22.95;;;11.70;;
22320;SDS011;11328;53.928;18.522;2023-12-28T09:00:09;25.30;;;11.95;;
22320;SDS011;11328;53.928;18.522;2023-12-28T09:02:37;22.85;;;12.20;;
22320;SDS011;11328;53.928;18.522;2023-12-28T09:05:05;24.10;;;12.50;;
22320;SDS011;11328;53.928;18.522;2023-12-28T09:07:32;22.75;;;12.55;;
22320;SDS011;11328;53.928;18.522;2023-12-28T09:10:02;25.73;;;12.35;;
22320;SDS011;11328;53.928;18.522;2023-12-28T09:12:30;22.58;;;12.52;;
22320;SDS011;11328;53.928;18.522;2023-12-28T09:14:57;20.38;;;11.65;;
22320;SDS011;11328;53.928;18.522;2023-12-28T09:17:24;22.80;;;11.50;;
22320;SDS011;11328;53.928;18.522;2023-12-28T09:19:51;28.58;;;14.27;;
22320;SDS011;11328;53.928;18.522;2023-12-28T09:22:19;22.17;;;12.68;;
22320;SDS011;11328;53.928;18.522;2023-12-28T09:24:46;22.67;;;12.43;;
22320;SDS011;11328;53.928;18.522;2023-12-28T09:27:13;22.17;;;11.88;;
22320;SDS011;11328;53.928;18.522;2023-12-28T09:29:40;21.48;;;12.23;;
22320;SDS011;11328;53.928;18.522;2023-12-28T09:32:07;21.52;;;11.98;;
22320;SDS011;11328;53.928;18.522;2023-12-28T09:34:35;22.25;;;12.40;;
22320;SDS011;11328;53.928;18.522;2023-12-28T09:37:03;21.52;;;11.80;;
22320;SDS011;11328;53.928;18.522;2023-12-28T09:39:30;21.08;;;11.90;;
22320;SDS011;11328;53.928;18.522;2023-12-28T09:42:04;22.20;;;11.90;;
22320;SDS011;11328;53.928;18.522;2023-12-28T09:44:36;21.75;;;11.82;;
22320;SDS011;11328;53.928;18.522;2023-12-28T09:47:10;19.73;;;11.10;;
22320;SDS011;11328;53.928;18.522;2023-12-28T09:49:39;21.83;;;12.18;;
22320;SDS011;11328;53.928;18.522;2023-12-28T09:52:09;21.75;;;11.57;;
22320;SDS011;11328;53.928;18.522;2023-12-28T09:54:36;26.13;;;11.43;;
22320;SDS011;11328;53.928;18.522;2023-12-28T09:57:04;20.20;;;11.27;;
22320;SDS011;11328;53.928;18.522;2023-12-28T09:59:32;22.02;;;10.95;;
22320;SDS011;11328;53.928;18.522;2023-12-28T10:02:00;21.83;;;12.00;;
22320;SDS011;11328;53.928;18.522;2023-12-28T10:04:28;17.45;;;10.90;;
22320;SDS011;11328;53.928;18.522;2023-12-28T10:06:56;20.85;;;11.73;;
22320;SDS011;11328;53.928;18.522;2023-12-28T10:09:24;20.83;;;11.05;;
22320;SDS011;11328;53.928;18.522;2023-12-28T10:11:56;20.45;;;10.95;;
22320;SDS011;11328;53.928;18.522;2023-12-28T10:14:23;19.88;;;11.15;;
22320;SDS011;11328;53.928;18.522;2023-12-28T10:16:51;17.83;;;10.13;;
22320;SDS011;11328;53.928;18.522;2023-12-28T10:19:22;20.25;;;10.90;;
22320;SDS011;11328;53.928;18.522;2023-12-28T10:21:50;20.65;;;11.75;;
22320;SDS011;11328;53.928;18.522;2023-12-28T10:24:18;20.00;;;10.70;;
22320;SDS011;11328;53.928;18.522;2023-12-28T10:26:45;18.77;;;10.88;;
22320;SDS011;11328;53.928;18.522;2023-12-28T10:29:12;23.45;;;11.73;;
22320;SDS011;11328;53.928;18.522;2023-12-28T10:31:43;19.80;;;10.27;;
22320;SDS011;11328;53.928;18.522;2023-12-28T10:34:15;21.00;;;11.05;;
22320;SDS011;11328;53.928;18.522;2023-12-28T10:36:43;20.83;;;12.10;;
22320;SDS011;11328;53.928;18.522;2023-12-28T10:39:13;20.33;;;11.43;;
22320;SDS011;11328;53.928;18.522;2023-12-28T10:41:47;19.13;;;10.85;;
22320;SDS011;11328;53.928;18.522;2023-12-28T10:44:19;22.80;;;12.20;;
22320;SDS011;11328;53.928;18.522;2023-12-28T10:46:50;12.40;;;8.35;;
22320;SDS011;11328;53.928;18.522;2023-12-28T10:49:27;18.05;;;9.90;;
22320;SDS011;11328;53.928;18.522;2023-12-28T10:51:59;14.38;;;8.60;;
22320;SDS011;11328;53.928;18.522;2023-12-28T10:54:32;16.30;;;9.02;;
22320;SDS011;11328;53.928;18.522;2023-12-28T10:57:27;17.13;;;9.23;;
22320;SDS011;11328;53.928;18.522;2023-12-28T11:00:04;16.85;;;8.77;;
22320;SDS011;11328;53.928;18.522;2023-12-28T11:02:48;16.70;;;8.85;;
22320;SDS011;11328;53.928;18.522;2023-12-28T11:05:22;16.70;;;8.15;;
22320;SDS011;11328;53.928;18.522;2023-12-28T11:07:50;15.60;;;7.80;;
22320;SDS011;11328;53.928;18.522;2023-12-28T11:10:22;14.48;;;7.45;;
22320;SDS011;11328;53.928;18.522;2023-12-28T11:12:51;15.10;;;8.48;;
22320;SDS011;11328;53.928;18.522;2023-12-28T11:15:19;16.48;;;8.20;;
22320;SDS011;11328;53.928;18.522;2023-12-28T11:17:50;14.57;;;7.53;;
22320;SDS011;11328;53.928;18.522;2023-12-28T11:20:17;14.30;;;8.02;;
22320;SDS011;11328;53.928;18.522;2023-12-28T11:22:45;13.63;;;7.05;;
22320;SDS011;11328;53.928;18.522;2023-12-28T11:25:16;16.30;;;7.75;;
22320;SDS011;11328;53.928;18.522;2023-12-28T11:27:47;15.20;;;7.57;;
22320;SDS011;11328;53.928;18.522;2023-12-28T11:30:15;12.70;;;7.43;;
22320;SDS011;11328;53.928;18.522;2023-12-28T11:32:42;12.43;;;6.75;;
22320;SDS011;11328;53.928;18.522;2023-12-28T11:35:11;14.70;;;6.97;;
22320;SDS011;11328;53.928;18.522;2023-12-28T11:37:42;14.00;;;6.53;;
22320;SDS011;11328;53.928;18.522;2023-12-28T11:40:17;13.73;;;6.55;;
22320;SDS011;11328;53.928;18.522;2023-12-28T11:42:51;14.82;;;6.72;;
22320;SDS011;11328;53.928;18.522;2023-12-28T11:45:24;11.90;;;6.43;;
22320;SDS011;11328;53.928;18.522;2023-12-28T11:48:01;15.07;;;6.90;;
22320;SDS011;11328;53.928;18.522;2023-12-28T11:50:30;12.23;;;6.55;;
22320;SDS011;11328;53.928;18.522;2023-12-28T11:52:59;13.48;;;6.63;;
22320;SDS011;11328;53.928;18.522;2023-12-28T11:55:26;15.13;;;6.68;;
22320;SDS011;11328;53.928;18.522;2023-12-28T11:57:54;12.07;;;6.38;;
22320;SDS011;11328;53.928;18.522;2023-12-28T12:00:22;17.20;;;9.98;;
22320;SDS011;11328;53.928;18.522;2023-12-28T12:02:52;14.15;;;6.20;;
22320;SDS011;11328;53.928;18.522;2023-12-28T12:05:22;14.55;;;6.50;;
22320;SDS011;11328;53.928;18.522;2023-12-28T12:07:50;16.35;;;7.72;;
22320;SDS011;11328;53.928;18.522;2023-12-28T12:10:19;12.40;;;6.65;;
22320;SDS011;11328;53.928;18.522;2023-12-28T12:12:47;11.50;;;5.90;;
22320;SDS011;11328;53.928;18.522;2023-12-28T12:15:19;14.98;;;6.57;;
22320;SDS011;11328;53.928;18.522;2023-12-28T12:17:47;12.65;;;5.88;;
22320;SDS011;11328;53.928;18.522;2023-12-28T12:20:14;13.55;;;6.18;;
22320;SDS011;11328;53.928;18.522;2023-12-28T12:22:42;13.25;;;6.70;;
22320;SDS011;11328;53.928;18.522;2023-12-28T12:25:09;13.63;;;5.72;;
22320;SDS011;11328;53.928;18.522;2023-12-28T12:27:36;13.77;;;6.60;;
22320;SDS011;11328;53.928;18.522;2023-12-28T12:30:05;12.95;;;6.28;;
22320;SDS011;11328;53.928;18.522;2023-12-28T12:32:33;13.57;;;6.40;;
22320;SDS011;11328;53.928;18.522;2023-12-28T12:35:09;12.18;;;6.05;;
22320;SDS011;11328;53.928;18.522;2023-12-28T12:37:38;11.02;;;5.72;;
22320;SDS011;11328;53.928;18.522;2023-12-28T12:40:05;12.60;;;5.95;;
22320;SDS011;11328;53.928;18.522;2023-12-28T12:42:34;12.27;;;6.18;;
22320;SDS011;11328;53.928;18.522;2023-12-28T12:45:01;13.30;;;5.78;;
22320;SDS011;11328;53.928;18.522;2023-12-28T12:47:32;9.65;;;5.35;;
22320;SDS011;11328;53.928;18.522;2023-12-28T12:50:01;13.80;;;5.50;;
22320;SDS011;11328;53.928;18.522;2023-12-28T12:52:28;15.00;;;5.65;;
22320;SDS011;11328;53.928;18.522;2023-12-28T12:54:56;12.77;;;5.60;;
22320;SDS011;11328;53.928;18.522;2023-12-28T12:57:24;9.73;;;5.28;;
22320;SDS011;11328;53.928;18.522;2023-12-28T12:59:54;12.15;;;5.32;;
22320;SDS011;11328;53.928;18.522;2023-12-28T13:02:22;15.48;;;5.82;;
22320;SDS011;11328;53.928;18.522;2023-12-28T13:04:54;9.50;;;5.57;;
22320;SDS011;11328;53.928;18.522;2023-12-28T13:07:22;11.95;;;4.90;;
22320;SDS011;11328;53.928;18.522;2023-12-28T13:09:50;13.05;;;5.60;;
22320;SDS011;11328;53.928;18.522;2023-12-28T13:12:17;10.25;;;5.07;;
22320;SDS011;11328;53.928;18.522;2023-12-28T13:14:45;12.18;;;5.00;;
22320;SDS011;11328;53.928;18.522;2023-12-28T13:17:12;11.73;;;5.13;;
22320;SDS011;11328;53.928;18.522;2023-12-28T13:19:39;10.88;;;5.20;;
22320;SDS011;11328;53.928;18.522;2023-12-28T13:22:06;11.75;;;6.93;;
22320;SDS011;11328;53.928;18.522;2023-12-28T13:24:33;13.82;;;6.25;;
22320;SDS011;11328;53.928;18.522;2023-12-28T13:27:01;11.15;;;5.88;;
22320;SDS011;11328;53.928;18.522;2023-12-28T13:29:29;13.20;;;6.28;;
22320;SDS011;11328;53.928;18.522;2023-12-28T13:31:56;9.98;;;4.95;;
22320;SDS011;11328;53.928;18.522;2023-12-28T13:34:24;11.70;;;5.70;;
22320;SDS011;11328;53.928;18.522;2023-12-28T13:36:51;12.30;;;6.05;;
22320;SDS011;11328;53.928;18.522;2023-12-28T13:39:21;12.43;;;5.38;;
22320;SDS011;11328;53.928;18.522;2023-12-28T13:41:48;12.40;;;5.00;;
22320;SDS011;11328;53.928;18.522;2023-12-28T13:44:15;12.70;;;5.38;;
22320;SDS011;11328;53.928;18.522;2023-12-28T13:46:43;11.40;;;5.88;;
22320;SDS011;11328;53.928;18.522;2023-12-28T13:49:11;12.55;;;4.63;;
22320;SDS011;11328;53.928;18.522;2023-12-28T13:51:40;13.00;;;4.97;;
22320;SDS011;11328;53.928;18.522;2023-12-28T13:54:07;10.90;;;5.75;;
22320;SDS011;11328;53.928;18.522;2023-12-28T13:56:34;14.35;;;5.18;;
22320;SDS011;11328;53.928;18.522;2023-12-28T13:59:01;11.98;;;5.78;;
22320;SDS011;11328;53.928;18.522;2023-12-28T14:01:28;13.60;;;6.78;;
22320;SDS011;11328;53.928;18.522;2023-12-28T14:03:56;46.20;;;19.38;;
22320;SDS011;11328;53.928;18.522;2023-12-28T14:06:23;16.98;;;6.15;;
22320;SDS011;11328;53.928;18.522;2023-12-28T14:08:50;16.13;;;6.95;;
22320;SDS011;11328;53.928;18.522;2023-12-28T14:11:18;11.77;;;5.53;;
22320;SDS011;11328;53.928;18.522;2023-12-28T14:13:45;13.55;;;5.60;;
22320;SDS011;11328;53.928;18.522;2023-12-28T14:16:12;13.60;;;6.63;;
22320;SDS011;11328;53.928;18.522;2023-12-28T14:18:39;13.68;;;5.93;;
22320;SDS011;11328;53.928;18.522;2023-12-28T14:21:08;12.88;;;4.90;;